createdAt,value
2023-01-19T00:01:26.467Z,99538.97
2023-01-19T00:03:52.771Z,99542.53
2023-01-19T00:06:19.407Z,99539.41
2023-01-19T00:08:46.060Z,99540.66
2023-01-19T00:11:13.011Z,99545.38
2023-01-19T00:13:39.979Z,99548.00
2023-01-19T00:16:07.535Z,99546.16
2023-01-19T00:18:33.911Z,99558.38
2023-01-19T00:21:00.234Z,99557.28
2023-01-19T00:23:26.568Z,99556.13
2023-01-19T00:25:52.981Z,99558.13
2023-01-19T00:28:19.865Z,99556.72
2023-01-19T00:30:46.187Z,99565.47
2023-01-19T00:33:15.516Z,99566.56
2023-01-19T00:35:44.900Z,99564.78
2023-01-19T00:38:12.382Z,99554.44
2023-01-19T00:40:38.787Z,99566.56
2023-01-19T00:43:05.214Z,99564.16
2023-01-19T00:45:31.688Z,99561.88
2023-01-19T00:47:58.088Z,99571.53
2023-01-19T00:50:26.192Z,99568.94
2023-01-19T00:52:54.394Z,99575.75
2023-01-19T00:55:20.932Z,99572.97
2023-01-19T00:57:47.289Z,99580.00
2023-01-19T01:00:16.721Z,99582.31
2023-01-19T01:02:44.393Z,99577.69
2023-01-19T01:08:22.227Z,99577.22
2023-01-19T01:10:48.626Z,99589.34
2023-01-19T01:13:21.643Z,99580.69
2023-01-19T01:15:53.189Z,99587.47
2023-01-19T01:18:20.536Z,99591.31
2023-01-19T01:20:46.894Z,99594.97
2023-01-19T01:23:13.837Z,99596.28
2023-01-19T01:25:40.928Z,99590.00
2023-01-19T01:28:08.658Z,99594.09
2023-01-19T01:30:39.870Z,99593.47
2023-01-19T01:33:07.523Z,99589.53
2023-01-19T01:35:33.909Z,99593.31
2023-01-19T01:38:01.114Z,99595.31
2023-01-19T01:40:28.376Z,99597.50
2023-01-19T01:42:54.704Z,99605.00
2023-01-19T01:45:32.223Z,99604.44
2023-01-19T01:48:22.299Z,99598.75
2023-01-19T01:51:16.931Z,99601.31
2023-01-19T01:53:47.123Z,99600.31
2023-01-19T01:56:18.304Z,99591.44
2023-01-19T01:58:45.221Z,99594.91
2023-01-19T02:01:30.379Z,99600.00
2023-01-19T02:03:58.018Z,99607.44
2023-01-19T02:06:25.199Z,99609.91
2023-01-19T02:09:21.200Z,99599.88
2023-01-19T02:12:06.546Z,99600.47
2023-01-19T02:14:37.250Z,99606.91
2023-01-19T02:17:04.520Z,99613.09
2023-01-19T02:19:39.125Z,99610.75
2023-01-19T02:22:15.780Z,99606.72
2023-01-19T02:24:43.044Z,99617.16
2023-01-19T02:27:10.923Z,99622.50
2023-01-19T02:29:37.561Z,99610.38
2023-01-19T02:32:05.588Z,99616.19
2023-01-19T02:34:32.366Z,99620.78
2023-01-19T02:37:06.355Z,99616.63
2023-01-19T02:39:52.569Z,99614.06
2023-01-19T02:42:25.560Z,99613.94
2023-01-19T02:44:54.427Z,99613.28
2023-01-19T02:47:20.938Z,99610.38
2023-01-19T02:49:58.218Z,99606.66
2023-01-19T02:52:26.403Z,99606.59
2023-01-19T02:55:03.758Z,99604.81
2023-01-19T02:57:59.696Z,99600.25
2023-01-19T03:00:51.099Z,99606.53
2023-01-19T03:03:58.387Z,99603.09
2023-01-19T03:06:43.153Z,99609.38
2023-01-19T03:09:29.143Z,99600.63
2023-01-19T03:12:01.998Z,99602.72
2023-01-19T03:14:30.641Z,99601.88
2023-01-19T03:17:02.386Z,99601.09
2023-01-19T03:19:34.264Z,99600.34
2023-01-19T03:22:05.681Z,99600.63
2023-01-19T03:24:40.012Z,99596.38
2023-01-19T03:27:40.781Z,99593.03
2023-01-19T03:30:13.219Z,99599.00
2023-01-19T03:32:46.960Z,99600.91
2023-01-19T03:35:15.898Z,99603.25
2023-01-19T03:37:46.179Z,99588.56
2023-01-19T03:40:13.802Z,99594.72
2023-01-19T03:42:41.060Z,99591.88
2023-01-19T03:45:08.993Z,99589.06
2023-01-19T03:47:36.296Z,99582.25
2023-01-19T03:50:07.518Z,99594.44
2023-01-19T03:52:34.161Z,99602.38
2023-01-19T03:55:05.728Z,99611.88
2023-01-19T03:57:32.156Z,99604.94
2023-01-19T03:59:58.517Z,99604.94
2023-01-19T04:02:25.152Z,99594.03
2023-01-19T04:04:51.496Z,99620.00
2023-01-19T04:07:17.945Z,99610.34
2023-01-19T04:09:44.464Z,99610.41
2023-01-19T04:12:10.750Z,99613.03
2023-01-19T04:14:37.083Z,99611.28
2023-01-19T04:17:03.471Z,99618.22
2023-01-19T04:19:29.783Z,99622.81
2023-01-19T04:21:56.750Z,99615.72
2023-01-19T04:24:23.099Z,99618.97
2023-01-19T04:26:51.786Z,99620.56
2023-01-19T04:29:18.131Z,99625.94
2023-01-19T04:31:44.469Z,99620.09
2023-01-19T04:34:10.864Z,99608.22
2023-01-19T04:36:37.271Z,99619.00
2023-01-19T04:39:04.897Z,99622.56
2023-01-19T04:41:31.537Z,99623.50
2023-01-19T04:43:57.889Z,99627.06
2023-01-19T04:46:24.323Z,99623.34
2023-01-19T04:48:50.696Z,99610.19
2023-01-19T04:51:17.078Z,99622.56
2023-01-19T04:53:43.424Z,99621.78
2023-01-19T04:56:09.742Z,99621.38
2023-01-19T04:58:36.551Z,99622.75
2023-01-19T05:01:07.969Z,99625.03
2023-01-19T05:03:34.354Z,99621.84
2023-01-19T05:06:00.776Z,99622.50
2023-01-19T05:08:27.258Z,99628.38
2023-01-19T05:10:53.617Z,99623.03
2023-01-19T05:13:20.007Z,99625.09
2023-01-19T05:15:46.397Z,99622.72
2023-01-19T05:18:12.738Z,99622.91
2023-01-19T05:20:40.010Z,99618.16
2023-01-19T05:23:06.385Z,99616.06
2023-01-19T05:25:32.684Z,99617.75
2023-01-19T05:27:58.977Z,99627.88
2023-01-19T05:30:25.588Z,99628.75
2023-01-19T05:32:51.879Z,99636.00
2023-01-19T05:35:20.205Z,99629.56
2023-01-19T05:37:51.449Z,99637.09
2023-01-19T05:40:17.877Z,99641.53
2023-01-19T05:42:44.193Z,99636.94
2023-01-19T05:45:11.740Z,99646.38
2023-01-19T05:47:39.812Z,99631.69
2023-01-19T05:50:06.727Z,99647.63
2023-01-19T05:52:33.003Z,99637.38
2023-01-19T05:54:59.497Z,99643.97
2023-01-19T05:57:25.828Z,99649.41
2023-01-19T05:59:52.139Z,99654.34
2023-01-19T06:02:18.509Z,99663.00
2023-01-19T06:04:44.899Z,99662.69
2023-01-19T06:07:11.272Z,99660.97
2023-01-19T06:09:37.586Z,99663.66
2023-01-19T06:12:04.545Z,99662.59
2023-01-19T06:14:32.377Z,99674.91
2023-01-19T06:16:58.802Z,99669.31
2023-01-19T06:19:25.252Z,99680.16
2023-01-19T06:21:52.243Z,99678.47
2023-01-19T06:24:19.155Z,99680.41
2023-01-19T06:26:45.756Z,99663.28
2023-01-19T06:29:12.140Z,99681.78
2023-01-19T06:31:38.550Z,99683.03
2023-01-19T06:34:04.914Z,99687.97
2023-01-19T06:36:31.474Z,99666.41
2023-01-19T06:38:57.777Z,99697.06
2023-01-19T06:41:24.133Z,99677.13
2023-01-19T06:43:50.447Z,99682.28
2023-01-19T06:46:16.775Z,99684.72
2023-01-19T06:48:43.157Z,99694.34
2023-01-19T06:51:09.994Z,99695.47
2023-01-19T06:53:36.271Z,99702.25
2023-01-19T06:56:04.999Z,99698.50
2023-01-19T06:58:31.719Z,99698.75
2023-01-19T07:01:03.223Z,99699.88
2023-01-19T07:03:29.828Z,99686.69
2023-01-19T07:05:56.883Z,99686.31
2023-01-19T07:08:24.164Z,99695.00
2023-01-19T07:11:22.362Z,99690.69
2023-01-19T07:13:38.801Z,99694.22
2023-01-19T07:16:11.476Z,99699.16
2023-01-19T07:18:39.175Z,99690.91
2023-01-19T07:21:06.503Z,99694.59
2023-01-19T07:23:33.264Z,99690.06
2023-01-19T07:26:03.755Z,99700.16
2023-01-19T07:28:31.590Z,99689.97
2023-01-19T07:30:58.377Z,99708.66
2023-01-19T07:33:26.113Z,99707.13
2023-01-19T07:35:52.930Z,99710.53
2023-01-19T07:38:19.542Z,99715.88
2023-01-19T07:40:46.952Z,99711.06
2023-01-19T07:43:14.250Z,99717.34
2023-01-19T07:45:40.714Z,99709.03
2023-01-19T07:48:07.118Z,99723.28
2023-01-19T07:50:33.690Z,99715.56
2023-01-19T07:53:07.221Z,99710.31
2023-01-19T07:55:33.603Z,99711.47
2023-01-19T07:57:59.926Z,99719.16
2023-01-19T08:00:26.351Z,99711.81
2023-01-19T08:08:36.129Z,99718.22
2023-01-19T08:11:02.994Z,99719.91
2023-01-19T08:13:29.380Z,99706.97
2023-01-19T08:15:55.814Z,99716.66
2023-01-19T08:18:22.615Z,99704.34
2023-01-19T08:20:49.041Z,99712.53
2023-01-19T08:23:15.425Z,99712.63
2023-01-19T08:25:44.486Z,99711.56
2023-01-19T08:28:13.387Z,99711.16
2023-01-19T08:30:40.589Z,99714.13
2023-01-19T08:33:10.597Z,99704.44
2023-01-19T08:35:39.357Z,99708.84
2023-01-19T08:38:06.962Z,99711.06
2023-01-19T08:40:38.974Z,99712.09
2023-01-19T08:43:09.095Z,99709.53
2023-01-19T08:45:37.076Z,99708.72
2023-01-19T08:48:04.458Z,99711.13
2023-01-19T08:50:32.449Z,99717.50
2023-01-19T08:53:00.778Z,99718.84
2023-01-19T08:55:28.762Z,99710.22
2023-01-19T08:58:00.397Z,99721.34
2023-01-19T09:00:27.412Z,99720.25
2023-01-19T09:02:54.411Z,99733.53
2023-01-19T09:05:20.887Z,99734.03
2023-01-19T09:07:48.103Z,99740.47
2023-01-19T09:10:15.523Z,99746.22
2023-01-19T09:12:43.364Z,99742.84
2023-01-19T09:15:10.825Z,99740.09
2023-01-19T09:17:37.399Z,99744.28
2023-01-19T09:20:05.847Z,99752.38
2023-01-19T09:22:33.282Z,99741.94
2023-01-19T09:25:00.163Z,99742.88
2023-01-19T09:27:26.463Z,99742.97
2023-01-19T09:29:53.940Z,99742.97
2023-01-19T09:32:21.465Z,99739.56
2023-01-19T09:34:47.807Z,99732.00
2023-01-19T09:37:16.031Z,99735.22
2023-01-19T09:39:42.486Z,99740.00
2023-01-19T09:42:43.912Z,99745.47
2023-01-19T09:45:22.774Z,99747.41
2023-01-19T09:47:50.487Z,99747.94
2023-01-19T09:50:27.192Z,99753.94
2023-01-19T09:53:02.836Z,99751.72
2023-01-19T09:55:29.782Z,99754.91
2023-01-19T09:57:56.294Z,99751.44
2023-01-19T10:00:24.257Z,99758.97
2023-01-19T10:03:05.009Z,99752.91
2023-01-19T10:05:44.821Z,99756.50
2023-01-19T10:08:24.376Z,99755.78
2023-01-19T10:10:56.580Z,99760.66
2023-01-19T10:13:34.370Z,99758.53
2023-01-19T10:16:14.713Z,99758.53
2023-01-19T10:18:51.489Z,99751.56
2023-01-19T10:21:41.876Z,99754.31
2023-01-19T10:24:29.592Z,99752.13
2023-01-19T10:26:57.029Z,99750.44
2023-01-19T10:29:38.710Z,99750.25
2023-01-19T10:32:26.788Z,99756.72
2023-01-19T10:34:54.025Z,99755.88
2023-01-19T10:37:34.161Z,99755.00
2023-01-19T10:40:06.699Z,99750.47
2023-01-19T10:42:33.155Z,99747.94
2023-01-19T10:44:59.634Z,99743.38
2023-01-19T10:47:33.390Z,99751.00
2023-01-19T10:49:59.821Z,99744.75
2023-01-19T10:52:36.985Z,99749.34
2023-01-19T10:55:06.928Z,99755.66
2023-01-19T10:57:43.241Z,99750.91
2023-01-19T11:00:42.992Z,99751.44
2023-01-19T11:03:29.026Z,99755.66
2023-01-19T11:06:26.491Z,99754.19
2023-01-19T11:09:08.624Z,99756.09
2023-01-19T11:11:42.709Z,99753.22
2023-01-19T11:14:12.704Z,99749.75
2023-01-19T11:16:40.028Z,99748.38
2023-01-19T11:19:17.145Z,99753.88
2023-01-19T11:21:43.521Z,99756.09
2023-01-19T11:24:14.583Z,99761.09
2023-01-19T11:26:50.348Z,99751.34
2023-01-19T11:29:27.277Z,99750.72
2023-01-19T11:31:54.973Z,99752.72
2023-01-19T11:34:36.678Z,99751.03
2023-01-19T11:37:27.639Z,99751.13
2023-01-19T11:40:02.922Z,99751.97
2023-01-19T11:42:32.621Z,99751.97
2023-01-19T11:45:16.560Z,99757.06
2023-01-19T11:47:49.661Z,99750.81
2023-01-19T11:50:42.374Z,99739.16
2023-01-19T11:53:22.312Z,99743.94
2023-01-19T11:56:09.441Z,99742.25
2023-01-19T11:58:41.314Z,99743.72
2023-01-19T12:01:20.978Z,99742.03
2023-01-19T12:03:54.875Z,99743.59
2023-01-19T12:06:27.523Z,99742.88
2023-01-19T12:08:58.886Z,99753.47
2023-01-19T12:11:31.481Z,99750.25
2023-01-19T12:13:59.600Z,99756.63
2023-01-19T12:16:34.514Z,99755.34
2023-01-19T12:19:06.254Z,99751.03
2023-01-19T12:21:32.644Z,99757.06
2023-01-19T12:24:23.370Z,99752.41
2023-01-19T12:26:57.809Z,99747.94
2023-01-19T12:29:29.120Z,99743.59
2023-01-19T12:32:13.822Z,99745.00
2023-01-19T12:34:42.219Z,99746.78
2023-01-19T12:37:28.513Z,99741.28
2023-01-19T12:40:00.999Z,99734.31
2023-01-19T12:42:28.466Z,99740.00
2023-01-19T12:45:14.600Z,99739.91
2023-01-19T12:47:52.928Z,99736.72
2023-01-19T12:50:23.256Z,99737.03
2023-01-19T12:52:56.944Z,99737.34
2023-01-19T12:55:33.158Z,99740.41
2023-01-19T12:58:07.012Z,99736.38
2023-01-19T13:00:45.044Z,99737.56
2023-01-19T13:03:17.084Z,99738.00
2023-01-19T13:05:43.479Z,99733.66
2023-01-19T13:08:09.734Z,99727.81
2023-01-19T13:11:10.308Z,99736.94
2023-01-19T13:13:43.883Z,99738.22
2023-01-19T13:16:19.188Z,99736.94
2023-01-19T13:18:48.916Z,99740.53
2023-01-19T13:21:39.347Z,99741.38
2023-01-19T13:24:08.671Z,99736.31
2023-01-19T13:26:42.234Z,99742.75
2023-01-19T13:29:22.841Z,99739.28
2023-01-19T13:31:49.584Z,99736.19
2023-01-19T13:34:19.711Z,99743.91
2023-01-19T13:36:50.985Z,99749.22
2023-01-19T13:39:26.587Z,99739.47
2023-01-19T13:41:54.653Z,99746.03
2023-01-19T13:44:27.853Z,99747.16
2023-01-19T13:46:56.509Z,99737.88
2023-01-19T13:49:45.026Z,99743.91
2023-01-19T13:52:23.504Z,99747.91
2023-01-19T13:54:53.793Z,99746.22
2023-01-19T13:57:33.384Z,99747.78
2023-01-19T14:00:12.120Z,99755.53
2023-01-19T14:02:39.762Z,99751.72
2023-01-19T14:05:15.554Z,99758.59
2023-01-19T14:07:42.114Z,99752.34
2023-01-19T14:10:14.271Z,99764.84
2023-01-19T14:12:54.465Z,99762.09
2023-01-19T14:15:25.252Z,99757.66
2023-01-19T14:18:16.148Z,99754.72
2023-01-19T14:21:13.211Z,99765.84
2023-01-19T14:23:49.667Z,99761.41
2023-01-19T14:26:37.289Z,99762.13
2023-01-19T14:29:23.827Z,99762.13
2023-01-19T14:32:07.147Z,99776.00
2023-01-19T14:34:41.239Z,99779.09
2023-01-19T14:37:23.457Z,99773.06
2023-01-19T14:39:54.952Z,99772.50
2023-01-19T14:42:25.998Z,99776.09
2023-01-19T14:44:54.137Z,99772.94
2023-01-19T14:47:29.354Z,99779.28
2023-01-19T14:50:00.497Z,99782.63
2023-01-19T14:52:57.315Z,99787.81
2023-01-19T14:55:31.971Z,99785.00
2023-01-19T14:58:03.778Z,99788.59
2023-01-19T15:00:30.177Z,99784.88
2023-01-19T15:02:56.669Z,99791.84
2023-01-19T15:05:23.267Z,99784.72
2023-01-19T15:07:49.695Z,99798.47
2023-01-19T15:10:20.895Z,99806.00
2023-01-19T15:12:49.080Z,99802.88
2023-01-19T15:15:18.498Z,99805.44
2023-01-19T15:17:45.310Z,99802.13
2023-01-19T15:20:15.195Z,99805.53
2023-01-19T15:22:41.589Z,99799.19
2023-01-19T15:25:09.551Z,99797.28
2023-01-19T15:27:36.097Z,99813.34
2023-01-19T15:30:02.405Z,99809.88
2023-01-19T15:32:28.736Z,99811.66
2023-01-19T15:34:55.015Z,99794.59
2023-01-19T15:37:21.365Z,99799.97
2023-01-19T15:39:47.680Z,99809.41
2023-01-19T15:42:14.798Z,99801.84
2023-01-19T15:44:41.195Z,99803.47
2023-01-19T15:47:09.727Z,99797.50
2023-01-19T15:49:36.077Z,99799.31
2023-01-19T15:52:02.360Z,99806.13
2023-01-19T15:54:28.726Z,99809.72
2023-01-19T15:56:55.133Z,99818.38
2023-01-19T15:59:21.662Z,99818.50
2023-01-19T16:01:50.021Z,99817.06
2023-01-19T16:04:18.024Z,99813.78
2023-01-19T16:06:44.572Z,99831.88
2023-01-19T16:09:16.578Z,99815.38
2023-01-19T16:11:42.900Z,99821.63
2023-01-19T16:14:09.299Z,99822.84
2023-01-19T16:16:35.767Z,99830.03
2023-01-19T16:19:02.234Z,99826.34
2023-01-19T16:21:28.526Z,99826.53
2023-01-19T16:23:55.289Z,99829.19
2023-01-19T16:26:35.194Z,99816.13
2023-01-19T16:29:08.525Z,99819.09
2023-01-19T16:31:36.080Z,99828.44
2023-01-19T16:34:02.515Z,99834.56
2023-01-19T16:36:36.229Z,99833.91
2023-01-19T16:39:13.691Z,99830.13
2023-01-19T16:41:40.113Z,99831.34
2023-01-19T16:44:06.625Z,99828.72
2023-01-19T16:46:35.429Z,99832.19
2023-01-19T16:49:07.388Z,99837.00
2023-01-19T16:51:33.757Z,99834.00
2023-01-19T16:54:00.167Z,99831.66
2023-01-19T16:56:26.525Z,99841.63
2023-01-19T16:58:54.197Z,99849.97
2023-01-19T17:01:21.234Z,99850.31
2023-01-19T17:03:48.372Z,99849.56
2023-01-19T17:06:22.618Z,99846.63
2023-01-19T17:08:50.251Z,99853.69
2023-01-19T17:11:20.700Z,99854.63
2023-01-19T17:13:53.987Z,99855.03
2023-01-19T17:16:21.305Z,99852.28
2023-01-19T17:18:47.699Z,99858.59
2023-01-19T17:21:17.742Z,99857.66
2023-01-19T17:23:46.624Z,99855.94
2023-01-19T17:26:13.651Z,99859.97
2023-01-19T17:28:40.094Z,99854.53
2023-01-19T17:31:08.905Z,99865.94
2023-01-19T17:33:35.411Z,99869.34
2023-01-19T17:36:04.282Z,99871.38
2023-01-19T17:38:30.656Z,99872.28
2023-01-19T17:40:57.058Z,99872.28
2023-01-19T17:43:23.396Z,99865.09
2023-01-19T17:45:49.864Z,99870.38
2023-01-19T17:48:17.438Z,99868.69
2023-01-19T17:50:44.803Z,99867.75
2023-01-19T17:53:11.813Z,99880.66
2023-01-19T17:55:38.179Z,99875.81
2023-01-19T17:58:04.555Z,99885.63
2023-01-19T18:00:31.047Z,99884.13
2023-01-19T18:02:57.448Z,99883.19
2023-01-19T18:05:24.430Z,99881.38
2023-01-19T18:07:50.781Z,99891.19
2023-01-19T18:10:17.366Z,99893.16
2023-01-19T18:12:45.108Z,99890.66
2023-01-19T18:15:12.274Z,99893.41
2023-01-19T18:17:38.579Z,99894.25
2023-01-19T18:20:05.419Z,99891.75
2023-01-19T18:22:32.124Z,99889.03
2023-01-19T18:24:58.440Z,99889.88
2023-01-19T18:27:24.757Z,99893.75
2023-01-19T18:29:51.043Z,99891.00
2023-01-19T18:32:17.488Z,99901.38
2023-01-19T18:34:43.969Z,99890.25
2023-01-19T18:37:10.267Z,99899.78
2023-01-19T18:39:36.625Z,99904.31
2023-01-19T18:42:03.192Z,99906.19
2023-01-19T18:44:29.514Z,99905.16
2023-01-19T18:46:56.667Z,99909.50
2023-01-19T18:49:23.200Z,99911.09
2023-01-19T18:51:49.544Z,99909.75
2023-01-19T18:54:17.370Z,99916.66
2023-01-19T18:56:43.923Z,99918.44
2023-01-19T18:59:10.647Z,99912.88
2023-01-19T19:01:37.239Z,99918.25
2023-01-19T19:04:03.802Z,99907.78
2023-01-19T19:06:30.209Z,99915.31
2023-01-19T19:08:59.221Z,99919.47
2023-01-19T19:11:26.328Z,99904.00
2023-01-19T19:13:54.878Z,99911.91
2023-01-19T19:16:21.470Z,99908.25
2023-01-19T19:18:51.083Z,99913.84
2023-01-19T19:21:18.617Z,99906.69
2023-01-19T19:23:49.725Z,99919.16
2023-01-19T19:26:16.070Z,99913.84
2023-01-19T19:28:42.443Z,99914.81
2023-01-19T19:31:11.848Z,99921.22
2023-01-19T19:33:39.179Z,99917.53
2023-01-19T19:36:07.111Z,99922.81
2023-01-19T19:38:34.617Z,99912.16
2023-01-19T19:41:05.723Z,99917.09
2023-01-19T19:43:32.950Z,99929.69
2023-01-19T19:46:10.858Z,99916.78
2023-01-19T19:48:39.329Z,99915.00
2023-01-19T19:51:25.561Z,99930.06
2023-01-19T19:53:53.544Z,99922.16
2023-01-19T19:56:21.845Z,99932.88
2023-01-19T19:58:49.008Z,99919.50
2023-01-19T20:01:18.401Z,99938.00
2023-01-19T20:03:45.546Z,99930.31
2023-01-19T20:06:14.819Z,99933.81
2023-01-19T20:08:42.047Z,99939.75
2023-01-19T20:11:09.931Z,99943.28
2023-01-19T20:13:38.389Z,99933.91
2023-01-19T20:16:07.507Z,99930.00
2023-01-19T20:18:33.931Z,99946.34
2023-01-19T20:21:00.508Z,99958.59
2023-01-19T20:23:27.100Z,99952.56
2023-01-19T20:25:53.598Z,99956.13
2023-01-19T20:28:19.971Z,99958.00
2023-01-19T20:30:46.418Z,99956.13
2023-01-19T20:33:12.725Z,99956.13
2023-01-19T20:35:39.092Z,99951.00
2023-01-19T20:38:05.507Z,99956.13
2023-01-19T20:40:31.846Z,99954.50
2023-01-19T20:42:58.243Z,99955.25
2023-01-19T20:45:25.888Z,99950.91
2023-01-19T20:47:52.671Z,99958.00
2023-01-19T20:50:19.006Z,99956.13
2023-01-19T20:52:45.317Z,99960.47
2023-01-19T20:55:14.030Z,99963.13
2023-01-19T20:57:40.477Z,99959.78
2023-01-19T21:00:07.330Z,99959.69
2023-01-19T21:02:33.708Z,99958.59
2023-01-19T21:05:00.138Z,99964.81
2023-01-19T21:07:26.555Z,99970.19
2023-01-19T21:09:52.835Z,99970.44
2023-01-19T21:12:21.270Z,99974.75
2023-01-19T21:14:47.618Z,99973.81
2023-01-19T21:17:14.014Z,99978.44
2023-01-19T21:19:40.384Z,99973.69
2023-01-19T21:22:06.691Z,99974.00
2023-01-19T21:24:33.074Z,99980.31
2023-01-19T21:26:59.385Z,99985.72
2023-01-19T21:29:25.835Z,99979.63
2023-01-19T21:31:52.148Z,99987.69
2023-01-19T21:34:18.695Z,99981.31
2023-01-19T21:36:45.264Z,99983.59
2023-01-19T21:39:11.619Z,99983.59
2023-01-19T21:41:39.816Z,99989.16
2023-01-19T21:44:06.289Z,99988.44
2023-01-19T21:46:33.901Z,99990.94
2023-01-19T21:49:02.612Z,99991.69
2023-01-19T21:51:30.072Z,99994.25
2023-01-19T21:53:59.348Z,99994.91
2023-01-19T21:56:27.458Z,100006.75
2023-01-19T21:58:54.457Z,100007.84
2023-01-19T22:01:22.937Z,100002.56
2023-01-19T22:03:54.600Z,100013.38
2023-01-19T22:06:21.332Z,100012.75
2023-01-19T22:08:47.941Z,100016.50
2023-01-19T22:11:16.624Z,100016.81
2023-01-19T22:13:43.461Z,100021.25
2023-01-19T22:16:13.875Z,100017.22
2023-01-19T22:18:42.744Z,100021.09
2023-01-19T22:21:14.947Z,100030.97
2023-01-19T22:23:42.409Z,100031.50
2023-01-19T22:26:11.056Z,100029.03
2023-01-19T22:28:38.202Z,100040.41
2023-01-19T22:31:07.930Z,100040.41
2023-01-19T22:33:34.625Z,100043.22
2023-01-19T22:36:12.770Z,100048.13
2023-01-19T22:38:40.199Z,100050.28
2023-01-19T22:41:23.199Z,100042.47
2023-01-19T22:43:52.328Z,100046.06
2023-01-19T22:46:20.774Z,100047.56
2023-01-19T22:48:48.674Z,100045.38
2023-01-19T22:51:16.248Z,100042.19
2023-01-19T22:53:42.587Z,100055.75
2023-01-19T22:56:17.334Z,100055.06
2023-01-19T22:58:44.955Z,100042.75
2023-01-19T23:01:14.364Z,100049.72
2023-01-19T23:03:41.439Z,100052.97
2023-01-19T23:06:10.876Z,100045.00
2023-01-19T23:08:37.908Z,100055.81
2023-01-19T23:11:09.481Z,100054.22
2023-01-19T23:13:37.061Z,100060.31
2023-01-19T23:16:05.222Z,100050.66
2023-01-19T23:18:31.895Z,100049.06
2023-01-19T23:21:10.720Z,100056.03
2023-01-19T23:23:37.419Z,100056.44
2023-01-19T23:26:23.785Z,100049.69
2023-01-19T23:28:55.998Z,100059.06
2023-01-19T23:31:26.624Z,100065.41
2023-01-19T23:33:58.402Z,100066.78
2023-01-19T23:36:27.102Z,100066.00
2023-01-19T23:38:56.354Z,100065.34
2023-01-19T23:41:24.318Z,100070.91
2023-01-19T23:43:51.071Z,100075.75
2023-01-19T23:46:18.800Z,100080.16
2023-01-19T23:48:45.321Z,100070.06
2023-01-19T23:51:21.361Z,100077.03
2023-01-19T23:53:48.670Z,100084.50
2023-01-19T23:56:23.625Z,100083.56
2023-01-19T23:58:58.434Z,100085.28
